KBAF/BAF METAR and TAF weather

Enter ICAO airport designator
Station Type Date Time Source
KBAF METAR 2022/01/29 12:53 UTC NOAA

KBAF 291253Z 01018G25KT 1/2SM R20/5000VP6000FT SN FZFG VV012 M08/M11 A2974 RMK AO2 PK WND 36030/1234 SLP079 P0000 T10831106


Station Type Date Time Source
KBAF Decoded METAR 2022/01/29 12:53 UTC NOAA

WESTFIELD BARNES MUNICIPAL, MA, United States (KBAF) 42-10N 072-43W 83M
Jan 29, 2022 - 07:53 AM EST / 2022.01.29 1253 UTC
Wind: from the N (010 degrees) at 21 MPH (18 KT) gusting to 29 MPH (25 KT):0
Visibility: 1/2 mile(s):0
Sky conditions: obscured
Weather: snow; freezing fog
Precipitation last hour: A trace
Temperature: 17.1 F (-8.3 C)
Windchill: 0 F (-18 C):1
Dew Point: 12.9 F (-10.6 C)
Relative Humidity: 83%
Pressure (altimeter): 29.74 in. Hg (1007 hPa)
ob: KBAF 291253Z 01018G25KT 1/2SM R20/5000VP6000FT SN FZFG VV012 M08/M11 A2974 RMK AO2 PK WND 36030/1234 SLP079 P0000 T10831106
cycle: 13

Station Type Date Time Source
KBAF TAF 2022/01/29 12:28 UTC NOAA

TAF KBAF 291126Z 2912/3012 01014G27KT 1SM -SN OVC010
FM291500 36017G35KT 1/2SM SN OVC008
FM291800 34017G35KT 1/2SM SN BLSN OVC007
FM300000 33017G30KT 6SM BLSN VCSH OVC050
FM300500 31014G24KT 6SM BLSN SCT150

Example: see airport list